Címlap Időjárás Ferihegy, Budapest Airport időjárás előrejelzés – METAR, TAF BUD/LHBP

Időjárás Ferihegy, Budapest Airport időjárás előrejelzés – METAR, TAF BUD/LHBP

Aktuális szöveges időjárásjelentés / METAR BUD/LHBP, és 24 órás szöveges időjárás-előrejelzés / TAF BUD/LHBP Budapest Liszt Ferenc Nemzetközi Repülőtér

Available data for LHBP from the past 6 hours
Metar
LHBP 192130Z VRB02KT 8000 MIFG NSC 12/12 Q1021 TEMPO 4000 BR

21:30 UTC

Wind: ° 2kt

Visibility: 8000 m

Sky:

Temp: 12 deg C / 53.6 deg F

Dewpoint: 12 deg C / 53.6 deg F

Pressure: 1021 hPa

TAF
TAF LHBP 191715Z 1918/2018 VRB03KT 8000 NSC TEMPO 1918/2001 4000 -RA BR SCT045 BKN085 TEMPO 2001/2007 2500 BR BECMG 2007/2009 32005KT 9999 SCT045 BECMG 2012/2014 31009KT CAVOK

Szélirány és erősség Ferihegy és környéke

Európa műholdkép


6 napos időjárás előrejelzés – Budapest Ferihegy Airport


Data is taken from the National Weather Service at NOAA. Satelite image by AustroControl & Meteo-Mc. Only for spotters, do not use for real flight!

A METAR és a TAF adatok a National Weather Service adatbázisából származnak. Az oldalon közölt adatok tájékoztató jellegűek, az oldal üzemeltetője nem vállal felelősséget ezek esetleges pontatlanságáért. Ne használd valós repüléshez!

Néhány hasznos infó, mielőtt repülőre szállsz